Aviation Digital Data Service (ADDS)

Output produced by METARs form (0951 UTC 23 July 2019)
found at http://www.aviationweather.gov/metar/data/
 
Forecast for: EFOU (OULU/ULEABORG , FI)
Text: TAF EFOU 230823Z 2309/2409 22006KT CAVOK
Forecast period: 0900 UTC 23 July 2019 to 0900 UTC 24 July 2019
Forecast type: FROM: standard forecast or significant change
Winds: from the SW (220 degrees) at 7 MPH (6 knots; 3.1 m/s)
Visibility: 6 or more miles 10+ km)
Ceiling: unknown
Clouds: missing
Weather: NSW  (no significant weather)